createdAt,value
2018-01-16T00:00:12.556Z,95155.18
2018-01-16T00:02:39.962Z,95150.66
2018-01-16T00:05:07.351Z,95161.59
2018-01-16T00:07:34.741Z,95154.80
2018-01-16T00:10:02.154Z,95163.09
2018-01-16T00:12:29.548Z,95143.11
2018-01-16T00:14:56.943Z,95147.08
2018-01-16T00:17:24.468Z,95149.31
2018-01-16T00:19:51.876Z,95156.30
2018-01-16T00:22:19.281Z,95130.84
2018-01-16T00:24:46.617Z,95140.23
2018-01-16T00:27:14.102Z,95145.18
2018-01-16T00:29:41.473Z,95124.98
2018-01-16T00:32:08.913Z,95144.22
2018-01-16T00:34:36.334Z,95118.02
2018-01-16T00:37:03.682Z,95124.97
2018-01-16T00:39:31.098Z,95128.35
2018-01-16T00:41:58.481Z,95113.47
2018-01-16T00:44:25.830Z,95116.66
2018-01-16T00:46:53.241Z,95131.36
2018-01-16T00:49:20.642Z,95114.58
2018-01-16T00:51:48.140Z,95115.70
2018-01-16T00:54:15.559Z,95115.73
2018-01-16T00:56:42.985Z,95118.16
2018-01-16T00:59:10.330Z,95095.17
2018-01-16T01:01:37.812Z,95123.80
2018-01-16T01:04:05.202Z,95092.34
2018-01-16T01:06:32.627Z,95093.45
2018-01-16T01:08:59.990Z,95102.14
2018-01-16T01:11:27.473Z,95100.83
2018-01-16T01:13:54.896Z,95101.95
2018-01-16T01:16:22.250Z,95096.67
2018-01-16T01:18:49.665Z,95091.34
2018-01-16T01:21:17.089Z,95087.22
2018-01-16T01:23:44.494Z,95088.19
2018-01-16T01:26:11.951Z,95085.91
2018-01-16T01:28:39.321Z,95078.55
2018-01-16T01:31:06.727Z,95076.09
2018-01-16T01:33:34.145Z,95068.38
2018-01-16T01:36:01.630Z,95068.94
2018-01-16T01:38:28.991Z,95074.39
2018-01-16T01:40:56.339Z,95062.71
2018-01-16T01:43:23.785Z,95066.67
2018-01-16T01:45:51.121Z,95066.30
2018-01-16T01:48:18.595Z,95069.69
2018-01-16T01:50:46.016Z,95077.41
2018-01-16T01:53:13.385Z,95068.73
2018-01-16T01:55:40.924Z,95070.23
2018-01-16T01:58:08.374Z,95076.09
2018-01-16T02:00:35.758Z,95056.86
2018-01-16T02:03:03.190Z,95081.75
2018-01-16T02:05:30.588Z,95066.27
2018-01-16T02:07:57.991Z,95073.00
2018-01-16T02:10:25.400Z,95068.48
2018-01-16T02:12:52.848Z,95060.36
2018-01-16T02:15:20.195Z,95069.20
2018-01-16T02:17:47.613Z,95064.31
2018-01-16T02:20:15.042Z,95061.30
2018-01-16T02:22:42.473Z,95061.28
2018-01-16T02:25:09.932Z,95055.63
2018-01-16T02:27:37.277Z,95044.11
2018-01-16T02:30:04.641Z,95072.81
2018-01-16T02:32:32.068Z,95071.31
2018-01-16T02:34:59.488Z,95068.86
2018-01-16T02:37:26.912Z,95085.83
2018-01-16T02:39:54.282Z,95078.27
2018-01-16T02:42:21.691Z,95073.19
2018-01-16T02:44:49.046Z,95058.70
2018-01-16T02:47:16.446Z,95053.05
2018-01-16T02:49:43.894Z,95050.97
2018-01-16T02:52:11.380Z,95051.92
2018-01-16T02:54:38.765Z,95049.70
2018-01-16T02:57:06.183Z,95060.60
2018-01-16T02:59:33.583Z,95057.78
2018-01-16T03:02:00.984Z,95057.43
2018-01-16T03:04:28.351Z,95060.64
2018-01-16T03:06:55.741Z,95049.52
2018-01-16T03:09:23.153Z,95041.59
2018-01-16T03:11:50.546Z,95048.19
2018-01-16T03:14:17.921Z,95051.41
2018-01-16T03:16:45.345Z,95036.52
2018-01-16T03:19:12.723Z,95041.78
2018-01-16T03:21:40.158Z,95043.12
2018-01-16T03:24:07.584Z,95047.81
2018-01-16T03:26:35.070Z,95037.47
2018-01-16T03:29:02.644Z,95031.45
2018-01-16T03:31:30.246Z,95036.91
2018-01-16T03:33:57.726Z,95036.53
2018-01-16T03:36:25.183Z,95045.58
2018-01-16T03:38:52.629Z,95039.55
2018-01-16T03:41:19.990Z,95040.88
2018-01-16T03:43:47.430Z,95039.55
2018-01-16T03:46:14.822Z,95029.01
2018-01-16T03:48:42.260Z,95036.92
2018-01-16T03:51:09.647Z,95039.17
2018-01-16T03:53:37.079Z,95029.01
2018-01-16T03:56:04.610Z,95037.11
2018-01-16T03:58:31.989Z,95032.79
2018-01-16T04:00:59.443Z,95032.77
2018-01-16T04:03:27.115Z,95020.89
2018-01-16T04:05:54.453Z,95027.48
2018-01-16T04:08:21.955Z,95019.20
2018-01-16T04:10:49.342Z,95016.56
2018-01-16T04:13:16.735Z,95011.27
2018-01-16T04:15:44.144Z,95015.25
2018-01-16T04:18:11.566Z,95018.45
2018-01-16T04:20:39.211Z,95014.52
2018-01-16T04:23:06.564Z,95022.24
2018-01-16T04:25:33.985Z,95009.03
2018-01-16T04:28:01.474Z,95018.84
2018-01-16T04:30:28.927Z,95023.56
2018-01-16T04:32:56.339Z,95030.34
2018-01-16T04:35:23.759Z,95023.17
2018-01-16T04:37:51.232Z,95012.43
2018-01-16T04:40:18.705Z,95005.06
2018-01-16T04:42:46.090Z,94999.58
2018-01-16T04:45:13.501Z,95003.52
2018-01-16T04:47:40.893Z,95006.93
2018-01-16T04:50:08.337Z,94985.41
2018-01-16T04:52:35.876Z,94993.69
2018-01-16T04:55:03.258Z,94997.86
2018-01-16T04:57:30.693Z,94990.28
2018-01-16T04:59:58.075Z,94998.78
2018-01-16T05:02:25.565Z,94990.11
2018-01-16T05:04:52.930Z,94981.42
2018-01-16T05:07:20.302Z,94988.55
2018-01-16T05:09:47.730Z,94993.26
2018-01-16T05:12:15.239Z,94987.23
2018-01-16T05:14:42.735Z,94990.61
2018-01-16T05:17:10.173Z,94991.76
2018-01-16T05:19:37.563Z,94980.42
2018-01-16T05:22:05.105Z,94984.91
2018-01-16T05:24:32.551Z,94976.80
2018-01-16T05:26:59.957Z,94986.27
2018-01-16T05:29:28.211Z,94970.95
2018-01-16T05:31:55.638Z,94992.28
2018-01-16T05:34:23.029Z,94987.55
2018-01-16T05:36:50.402Z,94979.44
2018-01-16T05:39:17.799Z,94983.58
2018-01-16T05:41:47.531Z,94972.06
2018-01-16T05:44:15.161Z,94970.18
2018-01-16T05:46:42.663Z,94979.58
2018-01-16T05:49:10.065Z,94983.37
2018-01-16T05:51:37.853Z,94988.66
2018-01-16T05:54:06.231Z,94990.11
2018-01-16T05:56:33.667Z,94974.48
2018-01-16T05:59:01.086Z,94979.74
2018-01-16T06:01:28.493Z,94981.41
2018-01-16T06:03:55.959Z,94977.98
2018-01-16T06:06:23.560Z,94980.68
2018-01-16T06:11:24.364Z,94968.77
2018-01-16T06:13:51.764Z,94950.43
2018-01-16T06:16:19.247Z,94942.53
2018-01-16T06:18:46.678Z,94962.84
2018-01-16T06:21:14.691Z,94953.62
2018-01-16T06:23:42.534Z,94955.23
2018-01-16T06:26:09.965Z,94947.55
2018-01-16T06:28:37.380Z,94937.98
2018-01-16T06:31:05.163Z,94931.78
2018-01-16T06:33:32.641Z,94934.94
2018-01-16T06:36:00.046Z,94921.13
2018-01-16T06:38:27.534Z,94885.63
2018-01-16T06:40:54.986Z,94888.38
2018-01-16T06:43:22.504Z,94883.23
2018-01-16T06:45:49.932Z,94876.09
2018-01-16T06:48:17.333Z,94870.77
2018-01-16T06:50:44.817Z,94863.38
2018-01-16T06:53:13.178Z,94844.80
2018-01-16T06:55:42.167Z,94843.34
2018-01-16T06:58:09.576Z,94832.02
2018-01-16T07:00:37.063Z,94815.05
2018-01-16T07:03:06.322Z,94813.09
2018-01-16T07:05:34.166Z,94829.22
2018-01-16T07:08:01.671Z,94822.21
2018-01-16T07:10:29.282Z,94829.38
2018-01-16T07:12:56.819Z,94841.52
2018-01-16T07:15:24.232Z,94862.75
2018-01-16T07:17:51.695Z,94857.41
2018-01-16T07:20:19.254Z,94872.44
2018-01-16T07:22:46.700Z,94880.28
2018-01-16T07:25:17.195Z,94877.27
2018-01-16T07:27:44.920Z,94893.14
2018-01-16T07:30:12.398Z,94909.17
2018-01-16T07:32:39.942Z,94901.07
2018-01-16T07:35:07.452Z,94917.13
2018-01-16T07:37:34.957Z,94915.44
2018-01-16T07:40:02.650Z,94915.61
2018-01-16T07:42:30.298Z,94919.55
2018-01-16T07:44:57.768Z,94909.67
2018-01-16T07:47:25.256Z,94914.38
2018-01-16T07:49:52.711Z,94912.17
2018-01-16T07:52:20.247Z,94913.30
2018-01-16T07:54:47.786Z,94897.31
2018-01-16T07:57:15.353Z,94898.80
2018-01-16T07:59:43.227Z,94907.56
2018-01-16T08:02:11.155Z,94892.98
2018-01-16T08:04:38.634Z,94904.25
2018-01-16T08:07:06.216Z,94903.85
2018-01-16T08:09:41.425Z,94900.02
2018-01-16T08:12:12.641Z,94888.67
2018-01-16T08:14:42.510Z,94881.78
2018-01-16T08:17:11.942Z,94892.55
2018-01-16T08:19:40.068Z,94885.76
2018-01-16T08:22:07.657Z,94870.28
2018-01-16T08:24:35.700Z,94874.41
2018-01-16T08:27:04.534Z,94882.66
2018-01-16T08:29:32.792Z,94884.41
2018-01-16T08:32:03.423Z,94888.27
2018-01-16T08:34:33.515Z,94880.50
2018-01-16T08:37:00.979Z,94875.46
2018-01-16T08:39:30.123Z,94872.48
2018-01-16T08:41:58.275Z,94869.99
2018-01-16T08:44:26.961Z,94882.64
2018-01-16T08:46:56.447Z,94879.06
2018-01-16T08:49:25.711Z,94873.13
2018-01-16T08:51:54.012Z,94876.81
2018-01-16T08:54:24.588Z,94865.44
2018-01-16T08:56:56.091Z,94881.16
2018-01-16T08:59:24.058Z,94875.02
2018-01-16T09:01:51.535Z,94868.40
2018-01-16T09:04:23.160Z,94872.41
2018-01-16T09:06:55.606Z,94872.26
2018-01-16T09:09:23.869Z,94863.54
2018-01-16T09:11:52.503Z,94860.37
2018-01-16T09:14:21.634Z,94850.08
2018-01-16T09:16:50.449Z,94854.23
2018-01-16T09:19:18.712Z,94844.55
2018-01-16T09:21:47.609Z,94843.76
2018-01-16T09:24:16.983Z,94827.20
2018-01-16T09:26:44.650Z,94833.23
2018-01-16T09:29:13.574Z,94843.08
2018-01-16T09:31:50.412Z,94822.66
2018-01-16T09:34:21.363Z,94831.25
2018-01-16T09:36:52.617Z,94828.62
2018-01-16T09:39:20.187Z,94825.45
2018-01-16T09:41:47.958Z,94820.47
2018-01-16T09:44:15.832Z,94820.30
2018-01-16T09:46:44.409Z,94809.86
2018-01-16T09:49:16.648Z,94807.16
2018-01-16T09:51:48.325Z,94823.52
2018-01-16T09:54:15.790Z,94804.05
2018-01-16T09:56:43.335Z,94790.39
2018-01-16T09:59:13.159Z,94800.09
2018-01-16T10:01:43.133Z,94795.82
2018-01-16T10:04:11.152Z,94791.77
2018-01-16T10:06:39.115Z,94790.36
2018-01-16T10:09:06.728Z,94783.38
2018-01-16T10:11:34.320Z,94790.67
2018-01-16T10:14:01.869Z,94776.30
2018-01-16T10:16:29.455Z,94771.40
2018-01-16T10:18:59.367Z,94773.28
2018-01-16T10:21:27.036Z,94788.77
2018-01-16T10:23:55.109Z,94748.16
2018-01-16T10:26:22.744Z,94768.14
2018-01-16T10:28:50.424Z,94770.55
2018-01-16T10:31:18.306Z,94739.63
2018-01-16T10:33:45.912Z,94762.69
2018-01-16T10:36:14.324Z,94748.90
2018-01-16T10:38:43.439Z,94742.26
2018-01-16T10:41:11.470Z,94760.04
2018-01-16T10:43:39.153Z,94725.34
2018-01-16T10:46:07.210Z,94736.84
2018-01-16T10:48:35.082Z,94736.81
2018-01-16T10:51:02.841Z,94720.15
2018-01-16T10:53:30.955Z,94734.45
2018-01-16T10:55:58.561Z,94707.43
2018-01-16T10:58:27.475Z,94707.58
2018-01-16T11:00:55.077Z,94698.66
2018-01-16T11:03:22.969Z,94682.61
2018-01-16T11:05:51.092Z,94685.70
2018-01-16T11:08:18.618Z,94676.95
2018-01-16T11:10:46.054Z,94653.61
2018-01-16T11:13:13.868Z,94658.77
2018-01-16T11:15:42.123Z,94657.45
2018-01-16T11:18:09.790Z,94648.45
2018-01-16T11:20:39.971Z,94642.48
2018-01-16T11:23:07.679Z,94652.45
2018-01-16T11:25:35.549Z,94633.20
2018-01-16T11:28:03.122Z,94632.94
2018-01-16T11:30:30.980Z,94632.84
2018-01-16T11:32:58.628Z,94631.52
2018-01-16T11:35:26.996Z,94618.11
2018-01-16T11:37:54.856Z,94609.62
2018-01-16T11:40:22.560Z,94603.84
2018-01-16T11:42:50.346Z,94606.19
2018-01-16T11:45:18.213Z,94606.64
2018-01-16T11:47:50.754Z,94586.22
2018-01-16T11:50:18.812Z,94577.97
2018-01-16T11:52:46.381Z,94576.02
2018-01-16T11:55:14.197Z,94563.72
2018-01-16T11:57:43.253Z,94553.25
2018-01-16T12:00:12.625Z,94557.11
2018-01-16T12:02:40.142Z,94551.31
2018-01-16T12:05:07.749Z,94539.58
2018-01-16T12:07:35.674Z,94534.56
2018-01-16T12:10:07.404Z,94524.12
2018-01-16T12:12:37.195Z,94531.72
2018-01-16T12:15:06.212Z,94530.00
2018-01-16T12:17:34.102Z,94528.05
2018-01-16T12:20:03.920Z,94504.77
2018-01-16T12:22:31.715Z,94522.52
2018-01-16T12:25:01.104Z,94519.60
2018-01-16T12:27:29.330Z,94511.05
2018-01-16T12:29:58.965Z,94511.69
2018-01-16T12:35:04.523Z,94499.56
2018-01-16T12:37:35.258Z,94510.83
2018-01-16T12:40:07.997Z,94493.08
2018-01-16T12:42:38.352Z,94512.85
2018-01-16T12:45:09.738Z,94495.03
2018-01-16T12:47:38.673Z,94491.13
2018-01-16T12:50:07.165Z,94494.88
2018-01-16T12:52:37.183Z,94487.27
2018-01-16T12:55:05.796Z,94484.45
2018-01-16T12:57:35.272Z,94479.42
2018-01-16T13:00:05.519Z,94479.98
2018-01-16T13:02:36.049Z,94472.08
2018-01-16T13:07:38.616Z,94453.58
2018-01-16T13:10:08.490Z,94447.95
2018-01-16T13:12:50.648Z,94454.77
2018-01-16T13:15:20.184Z,94460.55
2018-01-16T13:17:50.065Z,94445.52
2018-01-16T13:20:19.109Z,94445.51
2018-01-16T13:22:50.015Z,94431.25
2018-01-16T13:25:17.962Z,94421.63
2018-01-16T13:27:49.949Z,94421.37
2018-01-16T13:30:28.179Z,94424.13
2018-01-16T13:32:56.958Z,94420.05
2018-01-16T13:35:25.258Z,94410.65
2018-01-16T13:37:54.880Z,94415.27
2018-01-16T13:40:23.851Z,94406.33
2018-01-16T13:42:51.593Z,94412.05
2018-01-16T13:45:19.400Z,94419.72
2018-01-16T13:47:47.099Z,94414.41
2018-01-16T13:50:14.762Z,94419.11
2018-01-16T13:52:42.496Z,94404.23
2018-01-16T13:55:10.264Z,94416.72
2018-01-16T13:57:39.335Z,94397.48
2018-01-16T14:00:07.166Z,94399.11
2018-01-16T14:02:35.144Z,94420.36
2018-01-16T14:05:02.972Z,94409.02
2018-01-16T14:07:30.547Z,94401.13
2018-01-16T14:09:58.285Z,94403.14
2018-01-16T14:12:26.385Z,94418.81
2018-01-16T14:14:58.769Z,94422.65
2018-01-16T14:17:27.623Z,94359.94
2018-01-16T14:19:59.565Z,94415.13
2018-01-16T14:22:27.296Z,94403.17
2018-01-16T14:24:55.620Z,94368.60
2018-01-16T14:27:28.305Z,94373.69
2018-01-16T14:29:57.386Z,94413.13
2018-01-16T14:32:25.288Z,94355.91
2018-01-16T14:34:53.230Z,94378.38
2018-01-16T14:37:20.988Z,94393.72
2018-01-16T14:39:48.585Z,94364.80
2018-01-16T14:42:16.161Z,94370.83
2018-01-16T14:44:43.878Z,94376.25
2018-01-16T14:47:11.479Z,94354.28
2018-01-16T14:49:39.293Z,94385.33
2018-01-16T14:52:07.117Z,94355.23
2018-01-16T14:54:36.475Z,94347.72
2018-01-16T14:57:05.453Z,94365.83
2018-01-16T14:59:32.925Z,94376.87
2018-01-16T15:02:01.806Z,94377.10
2018-01-16T15:04:33.877Z,94375.50
2018-01-16T15:07:01.835Z,94381.13
2018-01-16T15:09:32.164Z,94383.31
2018-01-16T15:12:02.758Z,94378.20
2018-01-16T15:14:31.140Z,94348.83
2018-01-16T15:16:58.756Z,94363.44
2018-01-16T15:19:27.541Z,94368.94
2018-01-16T15:21:58.953Z,94351.48
2018-01-16T15:24:26.794Z,94351.90
2018-01-16T15:27:03.021Z,94343.41
2018-01-16T15:29:31.426Z,94348.47
2018-01-16T15:31:59.021Z,94358.51
2018-01-16T15:34:26.624Z,94374.83
2018-01-16T15:36:54.605Z,94356.45
2018-01-16T15:39:22.288Z,94356.45
2018-01-16T15:41:49.931Z,94343.41
2018-01-16T15:44:17.789Z,94352.02
2018-01-16T15:46:45.371Z,94339.87
2018-01-16T15:49:14.417Z,94355.60
2018-01-16T15:51:42.150Z,94330.80
2018-01-16T15:54:11.781Z,94342.83
2018-01-16T15:56:39.448Z,94317.89
2018-01-16T15:59:07.053Z,94315.23
2018-01-16T16:01:34.608Z,94307.34
2018-01-16T16:04:02.566Z,94307.16
2018-01-16T16:06:30.465Z,94298.89
2018-01-16T16:08:57.995Z,94309.39
2018-01-16T16:11:25.568Z,94306.92
2018-01-16T16:13:53.350Z,94322.56
2018-01-16T16:16:20.875Z,94318.35
2018-01-16T16:18:48.344Z,94316.61
2018-01-16T16:21:15.987Z,94298.58
2018-01-16T16:23:43.454Z,94295.89
2018-01-16T16:26:11.773Z,94284.44
2018-01-16T16:28:39.410Z,94282.55
2018-01-16T16:31:12.316Z,94277.80
2018-01-16T16:33:39.906Z,94271.08
2018-01-16T16:36:07.505Z,94265.85
2018-01-16T16:38:35.362Z,94272.98
2018-01-16T16:41:03.007Z,94274.38
2018-01-16T16:43:31.705Z,94260.53
2018-01-16T16:45:59.257Z,94263.80
2018-01-16T16:48:27.020Z,94262.17
2018-01-16T16:50:54.672Z,94269.37
2018-01-16T16:53:22.062Z,94269.75
2018-01-16T16:55:49.601Z,94253.33
2018-01-16T16:58:17.171Z,94244.03
2018-01-16T17:00:44.561Z,94251.52
2018-01-16T17:03:12.062Z,94259.28
2018-01-16T17:05:39.555Z,94256.59
2018-01-16T17:08:06.971Z,94246.31
2018-01-16T17:10:34.698Z,94248.48
2018-01-16T17:13:02.114Z,94248.47
2018-01-16T17:15:29.515Z,94254.39
2018-01-16T17:17:56.938Z,94253.79
2018-01-16T17:20:24.342Z,94245.36
2018-01-16T17:22:51.824Z,94258.17
2018-01-16T17:25:19.284Z,94254.00
2018-01-16T17:27:46.728Z,94268.27
2018-01-16T17:30:14.452Z,94245.02
2018-01-16T17:32:42.666Z,94264.23
2018-01-16T17:35:10.081Z,94265.52
2018-01-16T17:37:37.463Z,94247.25
2018-01-16T17:40:04.958Z,94236.40
2018-01-16T17:42:32.470Z,94233.21
2018-01-16T17:44:59.946Z,94210.73
2018-01-16T17:47:27.662Z,94209.90
2018-01-16T17:49:55.071Z,94202.55
2018-01-16T17:52:22.517Z,94200.87
2018-01-16T17:54:50.031Z,94209.09
2018-01-16T17:57:17.417Z,94207.16
2018-01-16T17:59:44.949Z,94196.13
2018-01-16T18:02:12.435Z,94188.58
2018-01-16T18:04:39.968Z,94191.77
2018-01-16T18:07:07.389Z,94180.98
2018-01-16T18:09:34.847Z,94185.17
2018-01-16T18:12:02.367Z,94184.10
2018-01-16T18:14:29.784Z,94182.48
2018-01-16T18:16:57.158Z,94169.98
2018-01-16T18:19:24.670Z,94170.36
2018-01-16T18:21:52.097Z,94175.40
2018-01-16T18:24:20.020Z,94164.23
2018-01-16T18:26:47.556Z,94160.94
2018-01-16T18:29:15.028Z,94149.44
2018-01-16T18:31:42.549Z,94156.60
2018-01-16T18:34:09.993Z,94167.33
2018-01-16T18:36:37.421Z,94146.45
2018-01-16T18:39:05.038Z,94153.00
2018-01-16T18:41:32.415Z,94154.02
2018-01-16T18:43:59.822Z,94146.98
2018-01-16T18:46:27.209Z,94143.64
2018-01-16T18:48:54.776Z,94127.73
2018-01-16T18:51:22.239Z,94108.73
2018-01-16T18:53:49.985Z,94120.70
2018-01-16T18:56:17.390Z,94108.28
2018-01-16T18:58:45.120Z,94108.54
2018-01-16T19:01:12.748Z,94101.80
2018-01-16T19:03:40.166Z,94105.17
2018-01-16T19:06:07.598Z,94101.80
2018-01-16T19:08:35.048Z,94099.05
2018-01-16T19:11:02.537Z,94104.02
2018-01-16T19:13:29.943Z,94097.30
2018-01-16T19:15:57.354Z,94118.02
2018-01-16T19:18:25.576Z,94116.80
2018-01-16T19:20:53.243Z,94114.66
2018-01-16T19:23:20.693Z,94130.97
2018-01-16T19:25:48.078Z,94147.37
2018-01-16T19:28:15.533Z,94150.50
2018-01-16T19:30:42.923Z,94146.27
2018-01-16T19:33:10.347Z,94147.50
2018-01-16T19:35:37.796Z,94132.74
2018-01-16T19:38:05.158Z,94154.00
2018-01-16T19:40:32.721Z,94155.10
2018-01-16T19:43:00.393Z,94149.91
2018-01-16T19:45:27.755Z,94121.91
2018-01-16T19:47:55.130Z,94148.48
2018-01-16T19:50:22.632Z,94159.08
2018-01-16T19:52:50.036Z,94146.00
2018-01-16T19:55:17.417Z,94133.67
2018-01-16T19:57:45.007Z,94130.14
2018-01-16T20:00:12.391Z,94135.75
2018-01-16T20:02:39.879Z,94136.38
2018-01-16T20:05:07.244Z,94116.77
2018-01-16T20:07:34.693Z,94129.26
2018-01-16T20:10:02.142Z,94115.23
2018-01-16T20:12:29.573Z,94120.69
2018-01-16T20:14:56.983Z,94106.50
2018-01-16T20:17:24.355Z,94134.08
2018-01-16T20:19:51.816Z,94116.59
2018-01-16T20:22:19.456Z,94141.11
2018-01-16T20:24:46.902Z,94130.64
2018-01-16T20:27:14.367Z,94112.80
2018-01-16T20:29:41.864Z,94123.48
2018-01-16T20:32:09.275Z,94133.09
2018-01-16T20:34:36.694Z,94109.05
2018-01-16T20:37:04.113Z,94129.93
2018-01-16T20:39:31.630Z,94108.76
2018-01-16T20:41:59.360Z,94112.29
2018-01-16T20:44:26.775Z,94109.11
2018-01-16T20:46:54.216Z,94084.47
2018-01-16T20:49:21.599Z,94123.75
2018-01-16T20:51:49.144Z,94112.28
2018-01-16T20:54:16.587Z,94084.47
2018-01-16T20:56:44.038Z,94102.35
2018-01-16T20:59:11.418Z,94098.91
2018-01-16T21:01:38.862Z,94118.09
2018-01-16T21:04:06.250Z,94102.81
2018-01-16T21:06:33.642Z,94101.84
2018-01-16T21:09:01.118Z,94114.70
2018-01-16T21:11:28.486Z,94121.20
2018-01-16T21:13:55.906Z,94127.14
2018-01-16T21:16:23.332Z,94083.92
2018-01-16T21:18:50.767Z,94092.57
2018-01-16T21:21:18.315Z,94117.61
2018-01-16T21:23:45.687Z,94123.62
2018-01-16T21:26:13.135Z,94127.77
2018-01-16T21:28:40.525Z,94110.66
2018-01-16T21:31:07.965Z,94106.16
2018-01-16T21:36:08.852Z,94125.59
2018-01-16T21:38:36.304Z,94130.28
2018-01-16T21:41:03.843Z,94114.03
2018-01-16T21:43:31.210Z,94127.73
2018-01-16T21:45:58.593Z,94102.58
2018-01-16T21:48:26.000Z,94115.58
2018-01-16T21:50:53.413Z,94152.93
2018-01-16T21:53:20.825Z,94123.30
2018-01-16T21:55:48.191Z,94141.19
2018-01-16T21:58:16.435Z,94143.19
2018-01-16T22:00:43.847Z,94146.16
2018-01-16T22:03:11.320Z,94137.90
2018-01-16T22:05:38.727Z,94148.29
2018-01-16T22:08:06.210Z,94144.00
2018-01-16T22:10:33.595Z,94111.30
2018-01-16T22:13:01.119Z,94130.83
2018-01-16T22:15:28.548Z,94136.33
2018-01-16T22:17:55.924Z,94131.53
2018-01-16T22:20:23.433Z,94126.70
2018-01-16T22:22:50.846Z,94120.93
2018-01-16T22:25:18.327Z,94137.84
2018-01-16T22:27:45.706Z,94117.91
2018-01-16T22:30:13.163Z,94118.47
2018-01-16T22:32:40.631Z,94098.42
2018-01-16T22:35:08.030Z,94088.41
2018-01-16T22:37:35.449Z,94097.34
2018-01-16T22:40:02.846Z,94097.66
2018-01-16T22:42:30.235Z,94081.75
2018-01-16T22:44:57.715Z,94072.52
2018-01-16T22:47:25.218Z,94062.58
2018-01-16T22:49:52.707Z,94050.52
2018-01-16T22:52:20.435Z,94037.86
2018-01-16T22:54:48.032Z,94054.64
2018-01-16T22:57:15.479Z,94069.23
2018-01-16T22:59:43.178Z,94037.57
2018-01-16T23:02:10.584Z,94045.42
2018-01-16T23:04:38.035Z,94043.37
2018-01-16T23:07:05.696Z,94020.70
2018-01-16T23:09:33.121Z,94043.42
2018-01-16T23:12:00.559Z,94045.09
2018-01-16T23:14:27.950Z,94035.84
2018-01-16T23:16:55.319Z,94018.91
2018-01-16T23:19:22.847Z,94039.43
2018-01-16T23:21:50.268Z,94032.69
2018-01-16T23:24:17.705Z,94014.03
2018-01-16T23:26:45.311Z,94024.66
2018-01-16T23:29:12.710Z,94011.98
2018-01-16T23:31:40.149Z,94022.39
2018-01-16T23:34:07.531Z,94025.59
2018-01-16T23:36:34.948Z,94005.10
2018-01-16T23:39:02.342Z,94002.00
2018-01-16T23:41:29.761Z,93997.64
2018-01-16T23:43:57.721Z,94028.89
2018-01-16T23:46:25.147Z,94031.83
2018-01-16T23:48:52.857Z,94016.11
2018-01-16T23:51:20.279Z,94016.23
2018-01-16T23:53:47.762Z,94033.55
2018-01-16T23:56:15.305Z,94022.02
2018-01-16T23:58:42.772Z,94030.67
